»·PEaware :: AAL491 KDEN-KPHX

AAL491 :: KDEN-KPHX

FLIGHT INFORMATION

Flight Status: Arrived
Operator:
American Airlines
More flights by this operator :: More flights under this callsign
Pilot: Jim M. (18055)
Aircraft: BOEING 777-200
(B772)
More flights by this aircraft type
Origin: KDEN Denver Intl
United States
Destination: KPHX Phoenix Sky Harbor Intl
United States
More flights between these airports :: More routes between these airports
Route: SOLAR4 DAAYE GUP EAGUL6
File this flight plan on PilotEdge
Remarks:
Altitude:
(Current/Filed)
34,000ft
Speed:
(Current/Filed)
450kts
Departed: 03-Nov-18 11:53 AM
Arrived: 03-Nov-18 01:22 PM
Distance/Time
Traveled:
522nm/1:28
Distance/Time
To Go:
Arrived

Flight Plot

Page will automatically refresh every two minutes.


Map Options




Map Legend


Flown Route
Filed Route
Departure Airport
Arrival Airport
Navaid (VOR, NDB)
Fix

Horizontal Profiles

Position Reports

Time Latitude Longitude Heading Altitude Ground
Speed
03-Nov-18 11:03 39.854498 -104.673134 179 5444ft 0kts
03-Nov-18 11:04 39.854498 -104.673134 179 5444ft 0kts
03-Nov-18 11:05 39.854498 -104.673134 179 5444ft 0kts
03-Nov-18 11:06 39.854498 -104.673134 179 5444ft 0kts
03-Nov-18 11:07 39.854498 -104.673134 179 5444ft 0kts
03-Nov-18 11:08 39.854498 -104.673134 179 5444ft 0kts
03-Nov-18 11:09 39.854498 -104.673134 179 5444ft 0kts
03-Nov-18 11:10 39.854498 -104.673134 179 5444ft 0kts
03-Nov-18 11:11 39.854498 -104.673134 179 5444ft 0kts
03-Nov-18 11:12 39.854498 -104.673134 179 5444ft 0kts
03-Nov-18 11:13 39.854498 -104.673134 179 5444ft 0kts
03-Nov-18 11:14 39.854498 -104.673134 179 5444ft 0kts
03-Nov-18 11:15 39.854498 -104.673134 179 5444ft 0kts
03-Nov-18 11:16 39.854498 -104.673134 179 5444ft 0kts
03-Nov-18 11:16 39.854498 -104.673134 179 5444ft 0kts
03-Nov-18 11:17 39.854498 -104.673134 179 5444ft 0kts
03-Nov-18 11:19 39.854498 -104.673134 179 5444ft 0kts
03-Nov-18 11:19 39.854498 -104.673134 179 5444ft 0kts
03-Nov-18 11:20 39.854498 -104.673134 179 5444ft 0kts
03-Nov-18 11:21 39.854498 -104.673134 179 5444ft 0kts
03-Nov-18 11:22 39.854498 -104.673134 179 5444ft 0kts
03-Nov-18 11:23 39.854498 -104.673134 179 5444ft 0kts
03-Nov-18 11:24 39.854498 -104.673134 179 5444ft 0kts
03-Nov-18 11:25 39.854498 -104.673134 179 5444ft 0kts
03-Nov-18 11:26 39.854498 -104.673134 179 5444ft 0kts
03-Nov-18 11:27 39.854498 -104.673134 179 5444ft 0kts
03-Nov-18 11:28 39.854498 -104.673134 179 5444ft 0kts
03-Nov-18 11:29 39.854498 -104.673134 179 5444ft 0kts
03-Nov-18 11:30 39.854498 -104.673134 179 5444ft 0kts
03-Nov-18 11:31 39.854498 -104.673134 179 5444ft 0kts
03-Nov-18 11:32 39.854498 -104.673134 179 5444ft 0kts
03-Nov-18 11:33 39.854498 -104.673134 179 5444ft 0kts
03-Nov-18 11:34 39.854498 -104.673134 179 5444ft 0kts
03-Nov-18 11:35 39.854498 -104.673134 179 5444ft 0kts
03-Nov-18 11:36 39.854498 -104.673134 179 5444ft 0kts
03-Nov-18 11:37 39.854498 -104.673134 179 5444ft 0kts
03-Nov-18 11:38 39.854498 -104.673134 179 5444ft 0kts
03-Nov-18 11:39 39.854881 -104.673094 196 5444ft 2kts
03-Nov-18 11:40 39.855243 -104.672615 269 5444ft 1kts
03-Nov-18 11:41 39.855243 -104.672554 269 5444ft 0kts
03-Nov-18 11:42 39.855243 -104.672554 269 5444ft 0kts
03-Nov-18 11:43 39.855243 -104.672554 269 5444ft 0kts
03-Nov-18 11:44 39.855243 -104.672554 269 5444ft 0kts
03-Nov-18 11:45 39.855237 -104.673728 269 5444ft 13kts
03-Nov-18 11:46 39.855666 -104.677764 313 5444ft 10kts
03-Nov-18 11:47 39.855980 -104.679658 271 5444ft 0kts
03-Nov-18 11:48 39.855995 -104.682434 270 5444ft 10kts
03-Nov-18 11:49 39.854186 -104.683981 179 5444ft 8kts
03-Nov-18 11:50 39.852089 -104.685024 266 5444ft 9kts
03-Nov-18 11:52 39.852030 -104.688388 268 5444ft 9kts
03-Nov-18 11:53 39.851975 -104.691906 270 5444ft 13kts
03-Nov-18 11:54 39.852037 -104.694546 272 5444ft 0kts
03-Nov-18 11:55 39.852481 -104.696487 338 5444ft 9kts
03-Nov-18 11:56 39.873613 -104.696651 358 5600ft 183kts
03-Nov-18 11:57 39.901880 -104.745843 252 8339ft 252kts
03-Nov-18 11:58 39.848117 -104.821602 224 10013ft 308kts
03-Nov-18 11:59 39.781585 -104.901511 211 11652ft 339kts
03-Nov-18 12:00 39.687492 -104.922165 175 15968ft 369kts
03-Nov-18 12:01 39.586826 -104.880165 151 20001ft 390kts
03-Nov-18 12:02 39.485323 -104.827810 172 23903ft 403kts
03-Nov-18 12:03 39.373477 -104.841677 206 27509ft 429kts
03-Nov-18 12:04 39.272807 -104.927866 206 30749ft 435kts
03-Nov-18 12:05 39.179239 -105.024788 213 33988ft 431kts
03-Nov-18 12:06 39.079357 -105.103464 201 34034ft 418kts
03-Nov-18 12:07 38.974510 -105.169714 202 34034ft 421kts
03-Nov-18 12:08 38.869418 -105.237358 202 34032ft 423kts
03-Nov-18 12:09 38.763806 -105.304732 202 34033ft 425kts
03-Nov-18 12:10 38.657331 -105.372381 202 34025ft 428kts
03-Nov-18 12:11 38.550148 -105.440265 203 34019ft 431kts
03-Nov-18 12:12 38.442121 -105.508423 203 34002ft 434kts
03-Nov-18 12:13 38.333495 -105.576773 204 34002ft 437kts
03-Nov-18 12:14 38.223901 -105.646197 204 33994ft 440kts
03-Nov-18 12:15 38.113624 -105.715114 204 33982ft 442kts
03-Nov-18 12:16 38.005235 -105.789348 216 33952ft 447kts
03-Nov-18 12:17 37.915733 -105.899196 223 33956ft 450kts
03-Nov-18 12:18 37.827778 -106.012135 222 33960ft 449kts
03-Nov-18 12:19 37.739506 -106.124498 223 33973ft 450kts
03-Nov-18 12:20 37.651142 -106.236982 223 33997ft 451kts
03-Nov-18 12:21 37.562541 -106.348833 223 34010ft 452kts
03-Nov-18 12:22 37.473192 -106.461140 223 34045ft 454kts
03-Nov-18 12:23 37.383622 -106.573309 224 34070ft 455kts
03-Nov-18 12:24 37.293720 -106.685495 224 34070ft 457kts
03-Nov-18 12:25 37.203108 -106.798164 225 34083ft 458kts
03-Nov-18 12:26 37.112129 -106.910885 225 34013ft 460kts
03-Nov-18 12:27 37.021048 -107.023326 225 34008ft 461kts
03-Nov-18 12:28 36.914426 -107.112544 209 33970ft 466kts
03-Nov-18 12:29 36.801251 -107.192016 213 33967ft 466kts
03-Nov-18 12:30 36.698541 -107.289326 224 33969ft 465kts
03-Nov-18 12:31 36.604738 -107.400395 221 33970ft 468kts
03-Nov-18 12:32 36.506279 -107.506271 228 33972ft 467kts
03-Nov-18 12:33 36.417191 -107.624004 230 33968ft 467kts
03-Nov-18 12:34 36.328768 -107.742304 230 33966ft 468kts
03-Nov-18 12:35 36.240028 -107.860848 230 33962ft 469kts
03-Nov-18 12:36 36.151187 -107.979135 231 33974ft 470kts
03-Nov-18 12:37 36.062067 -108.097389 231 33981ft 470kts
03-Nov-18 12:38 35.972659 -108.215620 231 33989ft 470kts
03-Nov-18 12:39 35.883315 -108.333372 231 33999ft 470kts
03-Nov-18 12:40 35.794080 -108.450606 231 34006ft 470kts
03-Nov-18 12:41 35.704480 -108.567981 231 34013ft 470kts
03-Nov-18 12:42 35.616574 -108.686807 231 34018ft 470kts
03-Nov-18 12:43 35.527082 -108.804594 232 34020ft 470kts
03-Nov-18 12:44 35.438150 -108.921978 231 34019ft 471kts
03-Nov-18 12:45 35.347548 -109.038625 231 34018ft 471kts
03-Nov-18 12:46 35.257142 -109.154930 231 34017ft 472kts
03-Nov-18 12:47 35.167041 -109.271414 231 34016ft 471kts
03-Nov-18 12:48 35.076448 -109.387628 231 34015ft 472kts
03-Nov-18 12:49 34.985875 -109.503745 231 34023ft 472kts
03-Nov-18 12:50 34.894922 -109.619250 231 34024ft 471kts
03-Nov-18 12:51 34.804457 -109.734278 232 34027ft 471kts
03-Nov-18 12:52 34.715243 -109.850723 238 34032ft 464kts
03-Nov-18 12:53 34.657922 -109.988149 252 34040ft 454kts
03-Nov-18 12:54 34.607195 -110.127196 252 33303ft 441kts
03-Nov-18 12:55 34.556186 -110.263200 252 30924ft 451kts
03-Nov-18 12:56 34.504303 -110.400537 253 29593ft 432kts
03-Nov-18 12:57 34.455412 -110.530562 252 27898ft 418kts
03-Nov-18 12:58 34.407313 -110.656735 252 26056ft 406kts
03-Nov-18 12:59 34.359693 -110.778464 246 24271ft 399kts
03-Nov-18 13:00 34.288864 -110.881383 232 22883ft 394kts
03-Nov-18 13:01 34.214119 -110.976713 232 21566ft 386kts
03-Nov-18 13:02 34.141702 -111.069857 232 20298ft 373kts
03-Nov-18 13:03 34.072450 -111.159170 232 19086ft 354kts
03-Nov-18 13:04 34.005862 -111.244524 231 17881ft 345kts
03-Nov-18 13:05 33.940643 -111.327744 231 16724ft 338kts
03-Nov-18 13:06 33.878529 -111.409603 237 15609ft 321kts
03-Nov-18 13:07 33.831449 -111.497955 242 14550ft 311kts
03-Nov-18 13:08 33.785280 -111.585673 241 13502ft 307kts
03-Nov-18 13:09 33.739688 -111.671205 241 12477ft 298kts
03-Nov-18 13:10 33.696182 -111.752855 241 11508ft 284kts
03-Nov-18 13:11 33.654273 -111.831784 239 10567ft 274kts
03-Nov-18 13:12 33.615571 -111.904665 239 9610ft 252kts
03-Nov-18 13:13 33.578659 -111.973996 237 8575ft 238kts
03-Nov-18 13:14 33.543203 -112.040331 237 7242ft 234kts
03-Nov-18 13:15 33.523329 -112.112578 267 6151ft 231kts
03-Nov-18 13:16 33.525174 -112.188705 271 4916ft 228kts
03-Nov-18 13:17 33.526705 -112.262384 269 4640ft 206kts
03-Nov-18 13:18 33.491545 -112.296441 182 3889ft 191kts
03-Nov-18 13:19 33.444502 -112.272797 122 3884ft 194kts
03-Nov-18 13:20 33.440694 -112.209547 90 3902ft 183kts
03-Nov-18 13:21 33.440822 -112.151450 90 3153ft 159kts
03-Nov-18 13:22 33.440825 -112.100883 90 2344ft 148kts
03-Nov-18 13:22 33.440791 -112.059791 90 1684ft 148kts
03-Nov-18 13:24 33.440860 -112.009283 90 1148ft 41kts
03-Nov-18 13:24 33.439894 -112.004230 131 1148ft 11kts
03-Nov-18 13:26 33.438999 -111.999636 90 1148ft 15kts
03-Nov-18 13:26 33.438994 -111.995795 89 1148ft 12kts
03-Nov-18 13:27 33.438606 -111.993122 205 1148ft 3kts
03-Nov-18 13:28 33.438069 -111.993826 227 1148ft 1kts
03-Nov-18 13:29 33.438067 -111.993828 227 1148ft 0kts
03-Nov-18 13:30 33.438067 -111.993828 227 1148ft 0kts
03-Nov-18 13:31 33.438067 -111.993828 227 1148ft 0kts

Navigation Log

Ident Type
Flight plan parsing failed, navigation log unavailable